Dara'a, Syria

3:04 PM EET on October 31, 2014 (GMT +0200)
M.I. Ben-Yaakov | Change Station
CLOSE
Current Station
Airport
Location: Rosh-Pina,
Elevation: 922 ft
Nearby Weather Stations

Elev 922 ft 32.98 °N, 35.57 °E | Updated 14 minutes ago

Scattered Clouds
Scattered Clouds
63 °F
Feels Like 63 °F
N
7
Wind Variable Wind from South

Today
High -- | Low -- °F
--% Chance of Precip.
Yesterday
High -- | Low -- °F
Precip. -- in
5:51 AM 4:46 PM
First Quarter, 55% visible
Pressure 29.95 in
Visibility 6.2 miles
Clouds Scattered Clouds 2000 ft
Scattered Clouds 3000 ft
Dew Point 59 °F
Humidity 88%
Rainfall 0.00 in
Snow Depth Not available.
UV 2 out of 12
Pollen Not available.
Air Quality Not available.
Flu Activity Not available.
METAR LLIB 311250Z 17006KT 130V210 9999 SCT020 SCT030 17/15 Q1014

More Conditions Fewer Conditions

Pressure 29.95 in
Visibility 6.2 miles
Clouds Scattered Clouds 2000 ft
Scattered Clouds 3000 ft
Dew Point 59 °F
Humidity 88%
Rainfall 0.00 in
Snow Depth Not available.
UV 2 out of 12
Pollen Not available.
Air Quality Not available.
Flu Activity Not available.
METAR LLIB 311250Z 17006KT 130V210 9999 SCT020 SCT030 17/15 Q1014

More Conditions Fewer Conditions

10-Day Weather Forecast

Almanac

Astronomy

Oct. 31, 2014 Rise Set
Actual Time
Civil Twilight
Nautical Twilight
Astronomical Twilight
Moon
Length of Visible Light
Length of Day
Tomorrow will be .
, % of the Moon is Illuminated

Today's Extremes

Country Highs Country Lows

Community

WunderPhotos

Upload Photos

1,766,601 photos uploaded!

WunderBlogs® & News

Nearby

Air Quality

  Air Quality AQ Index Pollutant
Not available.

Snow Depth

Station Depth Elevation

Earthquake Activity

City Distance Mag. Time & Date
Minimum magnitude displayed is 2.5.

Coastal Water Temperatures

Place Temperature

Nearby Weather Stations